sensor_id;sensor_type;location;lat;lon;timestamp;temperature;humidity
24017;DHT22;12222;50.090;19.702;2022-10-01T00:03:10;11.10;99.90
24017;DHT22;12222;50.090;19.702;2022-10-01T00:08:15;11.10;99.90
24017;DHT22;12222;50.090;19.702;2022-10-01T00:13:17;11.20;99.90
24017;DHT22;12222;50.090;19.702;2022-10-01T00:18:19;11.20;99.90
24017;DHT22;12222;50.090;19.702;2022-10-01T00:23:21;11.20;99.90
24017;DHT22;12222;50.090;19.702;2022-10-01T00:28:23;11.20;99.90
24017;DHT22;12222;50.090;19.702;2022-10-01T00:33:25;11.00;99.90
24017;DHT22;12222;50.090;19.702;2022-10-01T00:38:27;11.00;99.90
24017;DHT22;12222;50.090;19.702;2022-10-01T00:43:35;10.90;99.90
24017;DHT22;12222;50.090;19.702;2022-10-01T00:49:00;10.90;99.90
24017;DHT22;12222;50.090;19.702;2022-10-01T00:54:10;10.80;99.90
24017;DHT22;12222;50.090;19.702;2022-10-01T00:59:13;10.70;99.90
24017;DHT22;12222;50.090;19.702;2022-10-01T01:04:17;10.90;99.90
24017;DHT22;12222;50.090;19.702;2022-10-01T01:09:19;10.80;99.90
24017;DHT22;12222;50.090;19.702;2022-10-01T01:14:33;10.80;99.90
24017;DHT22;12222;50.090;19.702;2022-10-01T01:19:56;10.70;99.90
24017;DHT22;12222;50.090;19.702;2022-10-01T01:25:19;10.80;99.90
24017;DHT22;12222;50.090;19.702;2022-10-01T01:30:22;11.00;99.90
24017;DHT22;12222;50.090;19.702;2022-10-01T01:35:31;11.10;99.90
24017;DHT22;12222;50.090;19.702;2022-10-01T01:40:35;10.90;99.90
24017;DHT22;12222;50.090;19.702;2022-10-01T01:45:39;10.90;99.90
24017;DHT22;12222;50.090;19.702;2022-10-01T01:50:56;11.00;99.90
24017;DHT22;12222;50.090;19.702;2022-10-01T01:55:58;10.90;99.90
24017;DHT22;12222;50.090;19.702;2022-10-01T02:01:01;10.80;99.90
24017;DHT22;12222;50.090;19.702;2022-10-01T02:11:27;10.60;99.90
24017;DHT22;12222;50.090;19.702;2022-10-01T02:22:02;10.60;99.90
24017;DHT22;12222;50.090;19.702;2022-10-01T02:27:32;10.60;99.90
24017;DHT22;12222;50.090;19.702;2022-10-01T02:32:39;10.50;99.90
24017;DHT22;12222;50.090;19.702;2022-10-01T02:37:44;10.50;99.90
24017;DHT22;12222;50.090;19.702;2022-10-01T02:42:49;10.50;99.90
24017;DHT22;12222;50.090;19.702;2022-10-01T02:47:57;10.60;99.90
24017;DHT22;12222;50.090;19.702;2022-10-01T02:53:04;10.50;99.90
24017;DHT22;12222;50.090;19.702;2022-10-01T02:58:07;10.50;99.90
24017;DHT22;12222;50.090;19.702;2022-10-01T03:03:09;10.60;99.90
24017;DHT22;12222;50.090;19.702;2022-10-01T03:08:11;10.60;99.90
24017;DHT22;12222;50.090;19.702;2022-10-01T03:13:13;10.60;99.90
24017;DHT22;12222;50.090;19.702;2022-10-01T03:18:15;10.40;99.90
24017;DHT22;12222;50.090;19.702;2022-10-01T03:23:17;10.30;99.90
24017;DHT22;12222;50.090;19.702;2022-10-01T03:28:19;10.30;99.90
24017;DHT22;12222;50.090;19.702;2022-10-01T03:33:21;10.30;99.90
24017;DHT22;12222;50.090;19.702;2022-10-01T03:38:22;10.30;99.90
24017;DHT22;12222;50.090;19.702;2022-10-01T03:43:25;10.30;99.90
24017;DHT22;12222;50.090;19.702;2022-10-01T03:48:29;10.30;99.90
24017;DHT22;12222;50.090;19.702;2022-10-01T03:53:31;10.50;99.90
24017;DHT22;12222;50.090;19.702;2022-10-01T03:58:33;10.60;99.90
24017;DHT22;12222;50.090;19.702;2022-10-01T04:03:35;10.50;99.90
24017;DHT22;12222;50.090;19.702;2022-10-01T04:08:38;10.40;99.90
24017;DHT22;12222;50.090;19.702;2022-10-01T04:13:40;10.30;99.90
24017;DHT22;12222;50.090;19.702;2022-10-01T04:18:42;10.30;99.90
24017;DHT22;12222;50.090;19.702;2022-10-01T04:23:44;10.40;99.90
24017;DHT22;12222;50.090;19.702;2022-10-01T04:28:46;10.60;99.90
24017;DHT22;12222;50.090;19.702;2022-10-01T04:33:48;10.60;99.90
24017;DHT22;12222;50.090;19.702;2022-10-01T04:38:54;10.50;99.90
24017;DHT22;12222;50.090;19.702;2022-10-01T04:44:02;10.60;99.90
24017;DHT22;12222;50.090;19.702;2022-10-01T04:49:04;10.30;99.90
24017;DHT22;12222;50.090;19.702;2022-10-01T04:54:06;10.10;99.90
24017;DHT22;12222;50.090;19.702;2022-10-01T04:59:08;10.10;99.90
24017;DHT22;12222;50.090;19.702;2022-10-01T05:04:10;10.30;99.90
24017;DHT22;12222;50.090;19.702;2022-10-01T05:09:12;10.50;99.90
24017;DHT22;12222;50.090;19.702;2022-10-01T05:14:14;10.40;99.90
24017;DHT22;12222;50.090;19.702;2022-10-01T05:19:16;10.40;99.90
24017;DHT22;12222;50.090;19.702;2022-10-01T05:24:18;10.20;99.90
24017;DHT22;12222;50.090;19.702;2022-10-01T05:29:20;10.30;99.90
24017;DHT22;12222;50.090;19.702;2022-10-01T05:34:22;10.50;99.90
24017;DHT22;12222;50.090;19.702;2022-10-01T05:39:24;10.60;99.90
24017;DHT22;12222;50.090;19.702;2022-10-01T05:44:26;10.70;99.90
24017;DHT22;12222;50.090;19.702;2022-10-01T05:49:28;10.80;99.90
24017;DHT22;12222;50.090;19.702;2022-10-01T05:54:30;10.90;99.90
24017;DHT22;12222;50.090;19.702;2022-10-01T05:59:36;11.00;99.90
24017;DHT22;12222;50.090;19.702;2022-10-01T06:04:37;11.00;99.90
24017;DHT22;12222;50.090;19.702;2022-10-01T06:09:41;11.00;99.90
24017;DHT22;12222;50.090;19.702;2022-10-01T06:14:43;10.80;99.90
24017;DHT22;12222;50.090;19.702;2022-10-01T06:19:45;10.80;99.90
24017;DHT22;12222;50.090;19.702;2022-10-01T06:24:47;11.00;99.90
24017;DHT22;12222;50.090;19.702;2022-10-01T06:29:50;11.10;99.90
24017;DHT22;12222;50.090;19.702;2022-10-01T06:34:52;11.10;99.90
24017;DHT22;12222;50.090;19.702;2022-10-01T06:39:53;11.10;99.90
24017;DHT22;12222;50.090;19.702;2022-10-01T06:44:55;11.20;99.90
24017;DHT22;12222;50.090;19.702;2022-10-01T06:49:57;11.30;99.90
24017;DHT22;12222;50.090;19.702;2022-10-01T06:55:00;11.20;99.90
24017;DHT22;12222;50.090;19.702;2022-10-01T07:00:02;11.40;99.90
24017;DHT22;12222;50.090;19.702;2022-10-01T07:05:06;11.60;99.90
24017;DHT22;12222;50.090;19.702;2022-10-01T07:10:12;11.80;99.90
24017;DHT22;12222;50.090;19.702;2022-10-01T07:15:17;11.70;99.90
24017;DHT22;12222;50.090;19.702;2022-10-01T07:20:20;11.80;99.90
24017;DHT22;12222;50.090;19.702;2022-10-01T07:25:23;11.90;99.90
24017;DHT22;12222;50.090;19.702;2022-10-01T07:30:26;11.90;99.90
24017;DHT22;12222;50.090;19.702;2022-10-01T07:35:29;11.90;99.90
24017;DHT22;12222;50.090;19.702;2022-10-01T07:40:33;11.70;99.90
24017;DHT22;12222;50.090;19.702;2022-10-01T07:45:36;11.90;99.90
24017;DHT22;12222;50.090;19.702;2022-10-01T07:50:41;11.90;99.90
24017;DHT22;12222;50.090;19.702;2022-10-01T07:55:44;12.00;99.90
24017;DHT22;12222;50.090;19.702;2022-10-01T08:00:47;12.10;99.90
24017;DHT22;12222;50.090;19.702;2022-10-01T08:05:51;11.90;99.90
24017;DHT22;12222;50.090;19.702;2022-10-01T08:10:55;11.80;99.90
24017;DHT22;12222;50.090;19.702;2022-10-01T08:16:02;11.70;99.90
24017;DHT22;12222;50.090;19.702;2022-10-01T08:21:07;11.90;99.90
24017;DHT22;12222;50.090;19.702;2022-10-01T08:26:10;12.00;99.90
24017;DHT22;12222;50.090;19.702;2022-10-01T08:31:13;11.90;99.90
24017;DHT22;12222;50.090;19.702;2022-10-01T08:36:16;11.90;99.90
24017;DHT22;12222;50.090;19.702;2022-10-01T08:46:28;12.20;99.90
24017;DHT22;12222;50.090;19.702;2022-10-01T08:56:52;12.20;99.90
24017;DHT22;12222;50.090;19.702;2022-10-01T09:01:56;12.10;99.90
24017;DHT22;12222;50.090;19.702;2022-10-01T09:07:22;12.10;99.90
24017;DHT22;12222;50.090;19.702;2022-10-01T09:28:18;12.50;99.90
24017;DHT22;12222;50.090;19.702;2022-10-01T09:33:33;12.60;99.90
24017;DHT22;12222;50.090;19.702;2022-10-01T09:38:47;12.80;99.90
24017;DHT22;12222;50.090;19.702;2022-10-01T09:43:55;13.20;99.90
24017;DHT22;12222;50.090;19.702;2022-10-01T09:49:07;13.10;99.90
24017;DHT22;12222;50.090;19.702;2022-10-01T09:54:15;13.30;99.90
24017;DHT22;12222;50.090;19.702;2022-10-01T10:05:01;14.00;99.90
24017;DHT22;12222;50.090;19.702;2022-10-01T10:15:28;14.00;99.90
24017;DHT22;12222;50.090;19.702;2022-10-01T10:20:42;14.10;99.90
24017;DHT22;12222;50.090;19.702;2022-10-01T10:25:57;13.90;99.90
24017;DHT22;12222;50.090;19.702;2022-10-01T10:31:13;13.60;99.90
24017;DHT22;12222;50.090;19.702;2022-10-01T10:36:17;13.60;99.90
24017;DHT22;12222;50.090;19.702;2022-10-01T10:41:24;13.40;99.90
24017;DHT22;12222;50.090;19.702;2022-10-01T10:46:33;13.40;99.90
24017;DHT22;12222;50.090;19.702;2022-10-01T10:51:51;13.40;99.90
24017;DHT22;12222;50.090;19.702;2022-10-01T11:02:06;13.70;99.90
24017;DHT22;12222;50.090;19.702;2022-10-01T11:07:20;13.60;99.90
24017;DHT22;12222;50.090;19.702;2022-10-01T11:39:41;14.00;99.90
24017;DHT22;12222;50.090;19.702;2022-10-01T11:44:54;13.80;99.90
24017;DHT22;12222;50.090;19.702;2022-10-01T11:50:19;14.10;99.90
24017;DHT22;12222;50.090;19.702;2022-10-01T11:55:30;13.90;99.90
24017;DHT22;12222;50.090;19.702;2022-10-01T12:00:59;14.10;99.90
24017;DHT22;12222;50.090;19.702;2022-10-01T12:06:05;14.30;99.90
24017;DHT22;12222;50.090;19.702;2022-10-01T12:16:47;14.20;99.90
24017;DHT22;12222;50.090;19.702;2022-10-01T12:22:11;13.90;99.90
24017;DHT22;12222;50.090;19.702;2022-10-01T12:27:52;13.80;99.90
24017;DHT22;12222;50.090;19.702;2022-10-01T12:38:48;14.10;99.90
24017;DHT22;12222;50.090;19.702;2022-10-01T12:54:58;14.20;99.90
24017;DHT22;12222;50.090;19.702;2022-10-01T13:00:17;14.20;99.90
24017;DHT22;12222;50.090;19.702;2022-10-01T13:05:37;14.30;99.90
24017;DHT22;12222;50.090;19.702;2022-10-01T13:22:23;14.30;99.90
24017;DHT22;12222;50.090;19.702;2022-10-01T13:33:20;14.10;99.90
24017;DHT22;12222;50.090;19.702;2022-10-01T13:38:43;13.80;99.90
24017;DHT22;12222;50.090;19.702;2022-10-01T13:49:24;13.60;99.90
24017;DHT22;12222;50.090;19.702;2022-10-01T13:54:38;13.60;99.90
24017;DHT22;12222;50.090;19.702;2022-10-01T13:59:45;13.70;99.90
24017;DHT22;12222;50.090;19.702;2022-10-01T14:04:47;13.70;99.90
24017;DHT22;12222;50.090;19.702;2022-10-01T14:09:56;13.40;99.90
24017;DHT22;12222;50.090;19.702;2022-10-01T14:15:21;13.50;99.90
24017;DHT22;12222;50.090;19.702;2022-10-01T14:21:14;13.40;99.90
24017;DHT22;12222;50.090;19.702;2022-10-01T14:36:53;13.40;99.90
24017;DHT22;12222;50.090;19.702;2022-10-01T14:41:56;13.30;99.90
24017;DHT22;12222;50.090;19.702;2022-10-01T14:46:59;13.40;99.90
24017;DHT22;12222;50.090;19.702;2022-10-01T14:52:27;13.40;99.90
24017;DHT22;12222;50.090;19.702;2022-10-01T14:57:34;13.50;99.90
24017;DHT22;12222;50.090;19.702;2022-10-01T15:02:48;13.50;99.90
24017;DHT22;12222;50.090;19.702;2022-10-01T15:07:51;13.60;99.90
24017;DHT22;12222;50.090;19.702;2022-10-01T15:12:54;13.50;99.90
24017;DHT22;12222;50.090;19.702;2022-10-01T15:17:58;13.50;99.90
24017;DHT22;12222;50.090;19.702;2022-10-01T15:23:04;13.40;99.90
24017;DHT22;12222;50.090;19.702;2022-10-01T15:28:15;13.60;99.90
24017;DHT22;12222;50.090;19.702;2022-10-01T15:33:31;13.70;99.90
24017;DHT22;12222;50.090;19.702;2022-10-01T15:38:34;13.60;99.90
24017;DHT22;12222;50.090;19.702;2022-10-01T15:43:37;13.50;99.90
24017;DHT22;12222;50.090;19.702;2022-10-01T15:48:41;13.40;99.90
24017;DHT22;12222;50.090;19.702;2022-10-01T15:53:43;13.10;99.90
24017;DHT22;12222;50.090;19.702;2022-10-01T15:59:02;13.10;99.90
24017;DHT22;12222;50.090;19.702;2022-10-01T16:04:12;13.30;99.90
24017;DHT22;12222;50.090;19.702;2022-10-01T16:09:23;13.00;99.90
24017;DHT22;12222;50.090;19.702;2022-10-01T16:14:39;12.90;99.90
24017;DHT22;12222;50.090;19.702;2022-10-01T16:19:50;12.60;99.90
24017;DHT22;12222;50.090;19.702;2022-10-01T16:24:58;12.50;99.90
24017;DHT22;12222;50.090;19.702;2022-10-01T16:30:09;12.60;99.90
24017;DHT22;12222;50.090;19.702;2022-10-01T16:40:24;12.70;99.90
24017;DHT22;12222;50.090;19.702;2022-10-01T16:45:32;12.80;99.90
24017;DHT22;12222;50.090;19.702;2022-10-01T16:50:35;12.80;99.90
24017;DHT22;12222;50.090;19.702;2022-10-01T16:55:38;12.90;99.90
24017;DHT22;12222;50.090;19.702;2022-10-01T17:00:41;12.90;99.90
24017;DHT22;12222;50.090;19.702;2022-10-01T17:05:44;12.90;99.90
24017;DHT22;12222;50.090;19.702;2022-10-01T17:10:50;12.80;99.90
24017;DHT22;12222;50.090;19.702;2022-10-01T17:15:55;12.80;99.90
24017;DHT22;12222;50.090;19.702;2022-10-01T17:21:02;12.80;99.90
24017;DHT22;12222;50.090;19.702;2022-10-01T17:26:06;12.80;99.90
24017;DHT22;12222;50.090;19.702;2022-10-01T17:31:09;12.90;99.90
24017;DHT22;12222;50.090;19.702;2022-10-01T17:36:19;12.80;99.90
24017;DHT22;12222;50.090;19.702;2022-10-01T17:41:22;12.80;99.90
24017;DHT22;12222;50.090;19.702;2022-10-01T17:46:25;12.80;99.90
24017;DHT22;12222;50.090;19.702;2022-10-01T17:51:28;12.70;99.90
24017;DHT22;12222;50.090;19.702;2022-10-01T17:56:31;12.60;99.90
24017;DHT22;12222;50.090;19.702;2022-10-01T18:01:34;12.60;99.90
24017;DHT22;12222;50.090;19.702;2022-10-01T18:06:38;12.50;99.90
24017;DHT22;12222;50.090;19.702;2022-10-01T18:11:40;12.50;99.90
24017;DHT22;12222;50.090;19.702;2022-10-01T18:16:43;12.60;99.90
24017;DHT22;12222;50.090;19.702;2022-10-01T18:21:46;12.50;99.90
24017;DHT22;12222;50.090;19.702;2022-10-01T18:26:49;12.50;99.90
24017;DHT22;12222;50.090;19.702;2022-10-01T18:32:06;12.50;99.90
24017;DHT22;12222;50.090;19.702;2022-10-01T18:37:23;12.50;99.90
24017;DHT22;12222;50.090;19.702;2022-10-01T18:47:57;12.30;99.90
24017;DHT22;12222;50.090;19.702;2022-10-01T19:04:23;12.60;99.90
24017;DHT22;12222;50.090;19.702;2022-10-01T19:14:58;11.60;99.90
24017;DHT22;12222;50.090;19.702;2022-10-01T19:20:23;11.30;99.90
24017;DHT22;12222;50.090;19.702;2022-10-01T19:25:36;11.10;99.90
24017;DHT22;12222;50.090;19.702;2022-10-01T19:30:59;11.00;99.90
24017;DHT22;12222;50.090;19.702;2022-10-01T19:36:04;10.80;99.90
24017;DHT22;12222;50.090;19.702;2022-10-01T19:46:32;10.50;99.90
24017;DHT22;12222;50.090;19.702;2022-10-01T19:51:50;10.50;99.90
24017;DHT22;12222;50.090;19.702;2022-10-01T20:13:18;10.20;99.90
24017;DHT22;12222;50.090;19.702;2022-10-01T20:34:27;10.10;99.90
24017;DHT22;12222;50.090;19.702;2022-10-01T20:39:45;10.10;99.90
24017;DHT22;12222;50.090;19.702;2022-10-01T20:44:50;10.10;99.90
24017;DHT22;12222;50.090;19.702;2022-10-01T20:50:02;10.10;99.90
24017;DHT22;12222;50.090;19.702;2022-10-01T20:55:17;10.10;99.90
24017;DHT22;12222;50.090;19.702;2022-10-01T21:00:28;10.10;99.90
24017;DHT22;12222;50.090;19.702;2022-10-01T21:05:48;10.10;99.90
24017;DHT22;12222;50.090;19.702;2022-10-01T21:10:58;10.10;99.90
24017;DHT22;12222;50.090;19.702;2022-10-01T21:16:33;10.10;99.90
24017;DHT22;12222;50.090;19.702;2022-10-01T21:38:00;10.00;99.90
24017;DHT22;12222;50.090;19.702;2022-10-01T21:43:45;10.10;99.90
24017;DHT22;12222;50.090;19.702;2022-10-01T21:49:12;10.10;99.90
24017;DHT22;12222;50.090;19.702;2022-10-01T21:54:51;10.10;99.90
24017;DHT22;12222;50.090;19.702;2022-10-01T22:00:07;10.00;99.90
24017;DHT22;12222;50.090;19.702;2022-10-01T22:15:39;9.90;99.90
24017;DHT22;12222;50.090;19.702;2022-10-01T22:20:44;10.00;99.90
24017;DHT22;12222;50.090;19.702;2022-10-01T22:25:56;10.00;99.90
24017;DHT22;12222;50.090;19.702;2022-10-01T22:31:01;10.00;99.90
24017;DHT22;12222;50.090;19.702;2022-10-01T22:41:23;9.90;99.90
24017;DHT22;12222;50.090;19.702;2022-10-01T23:23:28;10.10;99.90
24017;DHT22;12222;50.090;19.702;2022-10-01T23:34:08;10.10;99.90
24017;DHT22;12222;50.090;19.702;2022-10-01T23:39:45;10.00;99.90
24017;DHT22;12222;50.090;19.702;2022-10-01T23:50:29;10.10;99.90
24017;DHT22;12222;50.090;19.702;2022-10-01T23:56:05;10.10;99.90
